
Meteorological Verification Developer/Analyst
| Date Time MST |
Temp °F |
RH % |
DewPt °F |
Wind mph |
Dir ° |
Gust mph |
Dir ° |
Press in Hg |
Solar W/m^2 |
Prec in |
|---|---|---|---|---|---|---|---|---|---|---|
| 2026-05-04 12:05 | 66.9 | 21.2 | 25.9 | 8.4 | 27 | 11.5 | 26 | 24.642 | 140.5 | 0.00 |
| 2026-05-04 12:00 | 66.7 | 20.5 | 25.0 | 7.6 | 15 | 10.0 | 349 | 24.639 | 189.7 | 0.00 |
| 2026-05-04 11:55 | 66.4 | 21.0 | 25.3 | 8.4 | 357 | 12.0 | 1 | 24.638 | 168.1 | 0.00 |
| 2026-05-04 11:50 | 66.7 | 20.2 | 24.6 | 9.9 | 21 | 13.3 | 28 | 24.637 | 135.2 | 0.00 |
| 2026-05-04 11:45 | 68.4 | 19.8 | 25.5 | 12.0 | 10 | 18.2 | 24 | 24.637 | 105.3 | 0.00 |
| 2026-05-04 11:40 | 69.6 | 19.1 | 25.7 | 10.9 | 314 | 14.2 | 326 | 24.634 | 88.3 | 0.00 |
| 2026-05-04 11:35 | 70.5 | 16.6 | 23.0 | 9.7 | 318 | 12.9 | 290 | 24.632 | 112.2 | 0.00 |
| 2026-05-04 11:30 | 70.7 | 16.0 | 22.4 | 3.1 | 284 | 5.6 | 264 | 24.627 | 227.4 | 0.00 |
| 2026-05-04 11:25 | 70.8 | 17.1 | 24.0 | 10.0 | 17 | 17.0 | 22 | 24.628 | 321.9 | 0.00 |
| 2026-05-04 11:20 | 71.3 | 16.6 | 23.7 | 10.4 | 343 | 16.0 | 331 | 24.627 | 326.8 | 0.00 |
| 2026-05-04 11:15 | 70.8 | 15.6 | 21.7 | 9.6 | 278 | 13.2 | 270 | 24.628 | 273.7 | 0.00 |
| 2026-05-04 11:10 | 70.8 | 15.3 | 21.4 | 9.4 | 264 | 16.2 | 281 | 24.628 | 246.6 | 0.00 |
| 2026-05-04 11:05 | 71.0 | 15.3 | 21.5 | 11.6 | 259 | 17.2 | 280 | 24.629 | 287.6 | 0.00 |
| 2026-05-04 11:00 | 71.2 | 15.0 | 21.2 | 10.3 | 267 | 17.1 | 283 | 24.630 | 321.1 | 0.00 |
| 2026-05-04 10:55 | 71.5 | 15.8 | 22.6 | 8.5 | 286 | 11.5 | 269 | 24.631 | 332.6 | 0.00 |
| 2026-05-04 10:50 | 72.2 | 14.4 | 21.1 | 9.7 | 319 | 15.7 | 287 | 24.633 | 431.6 | 0.00 |
| 2026-05-04 10:45 | 72.0 | 14.3 | 20.7 | 10.0 | 312 | 14.5 | 261 | 24.635 | 437.7 | 0.00 |
| 2026-05-04 10:40 | 72.1 | 14.2 | 20.7 | 8.8 | 295 | 16.0 | 293 | 24.637 | 449.1 | 0.00 |
| 2026-05-04 10:35 | 72.4 | 15.0 | 22.1 | 9.8 | 254 | 15.7 | 257 | 24.637 | 626.2 | 0.00 |
| 2026-05-04 10:30 | 72.5 | 15.4 | 22.9 | 11.0 | 275 | 16.4 | 271 | 24.638 | 821.0 | 0.00 |
| 2026-05-04 10:25 | 71.6 | 15.6 | 22.5 | 12.4 | 254 | 18.0 | 255 | 24.640 | 681.9 | 0.00 |
| 2026-05-04 10:20 | 71.2 | 16.2 | 23.0 | 14.4 | 230 | 19.6 | 233 | 24.641 | 685.3 | 0.00 |
| 2026-05-04 10:15 | 71.2 | 15.9 | 22.7 | 14.9 | 229 | 20.3 | 245 | 24.641 | 544.8 | 0.00 |
| 2026-05-04 10:10 | 71.1 | 16.6 | 23.5 | 13.0 | 269 | 20.4 | 275 | 24.644 | 531.2 | 0.00 |
| 2026-05-04 10:05 | 71.3 | 16.7 | 23.8 | 13.2 | 276 | 20.5 | 276 | 24.648 | 513.2 | 0.00 |
| 2026-05-04 10:00 | 71.3 | 15.4 | 21.9 | 13.7 | 284 | 20.1 | 240 | 24.647 | 604.4 | 0.00 |
| 2026-05-04 09:55 | 70.6 | 15.8 | 22.0 | 12.6 | 241 | 19.1 | 241 | 24.648 | 542.8 | 0.00 |
| 2026-05-04 09:50 | 70.8 | 15.9 | 22.3 | 15.3 | 266 | 20.1 | 273 | 24.648 | 408.6 | 0.00 |
| 2026-05-04 09:45 | 71.2 | 15.4 | 21.9 | 13.5 | 276 | 17.1 | 287 | 24.649 | 400.9 | 0.00 |
| 2026-05-04 09:40 | 70.9 | 15.1 | 21.0 | 13.0 | 294 | 17.7 | 288 | 24.649 | 425.9 | 0.00 |
| Date Time MST |
Temp °C |
RH % |
DewPt °C |
Wind m/s |
Dir ° |
Gust m/s |
Dir ° |
Press hPa |
Solar W/m^2 |
Prec mm |
|---|---|---|---|---|---|---|---|---|---|---|
| 2026-05-04 12:05 | 19.4 | 21.2 | -3.4 | 3.8 | 27 | 5.2 | 26 | 834.46 | 140.5 | 0.00 |
| 2026-05-04 12:00 | 19.3 | 20.5 | -3.9 | 3.4 | 15 | 4.4 | 349 | 834.38 | 189.7 | 0.00 |
| 2026-05-04 11:55 | 19.1 | 21.0 | -3.7 | 3.7 | 357 | 5.4 | 1 | 834.33 | 168.1 | 0.00 |
| 2026-05-04 11:50 | 19.3 | 20.2 | -4.1 | 4.4 | 21 | 5.9 | 28 | 834.32 | 135.2 | 0.00 |
| 2026-05-04 11:45 | 20.2 | 19.8 | -3.6 | 5.4 | 10 | 8.2 | 24 | 834.30 | 105.3 | 0.00 |
| 2026-05-04 11:40 | 20.9 | 19.1 | -3.5 | 4.9 | 314 | 6.3 | 326 | 834.21 | 88.3 | 0.00 |
| 2026-05-04 11:35 | 21.4 | 16.6 | -5.0 | 4.3 | 318 | 5.8 | 290 | 834.14 | 112.2 | 0.00 |
| 2026-05-04 11:30 | 21.5 | 16.0 | -5.4 | 1.4 | 284 | 2.5 | 264 | 833.97 | 227.4 | 0.00 |
| 2026-05-04 11:25 | 21.6 | 17.1 | -4.4 | 4.5 | 17 | 7.6 | 22 | 833.98 | 321.9 | 0.00 |
| 2026-05-04 11:20 | 21.8 | 16.6 | -4.6 | 4.6 | 343 | 7.2 | 331 | 833.98 | 326.8 | 0.00 |
| 2026-05-04 11:15 | 21.5 | 15.6 | -5.7 | 4.3 | 278 | 5.9 | 270 | 833.99 | 273.7 | 0.00 |
| 2026-05-04 11:10 | 21.6 | 15.3 | -5.9 | 4.2 | 264 | 7.3 | 281 | 834.00 | 246.6 | 0.00 |
| 2026-05-04 11:05 | 21.6 | 15.3 | -5.9 | 5.2 | 259 | 7.7 | 280 | 834.04 | 287.6 | 0.00 |
| 2026-05-04 11:00 | 21.8 | 15.0 | -6.0 | 4.6 | 267 | 7.6 | 283 | 834.07 | 321.1 | 0.00 |
| 2026-05-04 10:55 | 21.9 | 15.8 | -5.2 | 3.8 | 286 | 5.2 | 269 | 834.09 | 332.6 | 0.00 |
| 2026-05-04 10:50 | 22.3 | 14.4 | -6.0 | 4.3 | 319 | 7.0 | 287 | 834.18 | 431.6 | 0.00 |
| 2026-05-04 10:45 | 22.2 | 14.3 | -6.3 | 4.5 | 312 | 6.5 | 261 | 834.25 | 437.7 | 0.00 |
| 2026-05-04 10:40 | 22.3 | 14.2 | -6.3 | 4.0 | 295 | 7.2 | 293 | 834.30 | 449.1 | 0.00 |
| 2026-05-04 10:35 | 22.4 | 15.0 | -5.5 | 4.4 | 254 | 7.0 | 257 | 834.31 | 626.2 | 0.00 |
| 2026-05-04 10:30 | 22.5 | 15.4 | -5.0 | 4.9 | 275 | 7.3 | 271 | 834.33 | 821.0 | 0.00 |
| 2026-05-04 10:25 | 22.0 | 15.6 | -5.3 | 5.6 | 254 | 8.1 | 255 | 834.40 | 681.9 | 0.00 |
| 2026-05-04 10:20 | 21.8 | 16.2 | -5.0 | 6.4 | 230 | 8.7 | 233 | 834.44 | 685.3 | 0.00 |
| 2026-05-04 10:15 | 21.8 | 15.9 | -5.2 | 6.6 | 229 | 9.1 | 245 | 834.44 | 544.8 | 0.00 |
| 2026-05-04 10:10 | 21.7 | 16.6 | -4.7 | 5.8 | 269 | 9.1 | 275 | 834.53 | 531.2 | 0.00 |
| 2026-05-04 10:05 | 21.8 | 16.7 | -4.6 | 5.9 | 276 | 9.2 | 276 | 834.68 | 513.2 | 0.00 |
| 2026-05-04 10:00 | 21.8 | 15.4 | -5.6 | 6.1 | 284 | 9.0 | 240 | 834.65 | 604.4 | 0.00 |
| 2026-05-04 09:55 | 21.4 | 15.8 | -5.6 | 5.6 | 241 | 8.5 | 241 | 834.67 | 542.8 | 0.00 |
| 2026-05-04 09:50 | 21.6 | 15.9 | -5.4 | 6.8 | 266 | 9.0 | 273 | 834.66 | 408.6 | 0.00 |
| 2026-05-04 09:45 | 21.8 | 15.4 | -5.6 | 6.1 | 276 | 7.6 | 287 | 834.71 | 400.9 | 0.00 |
| 2026-05-04 09:40 | 21.6 | 15.1 | -6.1 | 5.8 | 294 | 7.9 | 288 | 834.73 | 425.9 | 0.00 |

Meteorological Verification Developer/Analyst
Cooperative Institute for Research in the Atmosphere
Colorado State University
1375 Campus Delivery
Fort Collins, CO 80523-1375